首页
METAR-TAF:

METAR-TAF

机场 :

皮阿尔科国际机场

西班牙港, 特立尼达岛, 千里達及托巴哥

纬度: 10-37N, 经度: 061-21W, 海拔: 12米

当前天气观测

该预报发布于26分钟前的07:00 UTC
静风
温度 23°C
湿度 94%
气压 1014 hPa
能见度10公里或以上
少量云层高于1600英尺

METAR: TTPP 240700Z 00000KT 9999 FEW016 23/22 Q1014 NOSIG

时间: 03:26 (07:26 UTC)

预报

该预报发布于3小时和26分钟前的04:00 UTC
预报有效从24日的 06点(UTC)到 25日的 06点(UTC)
风速5节,风向
能見度: 9000
少量云层高于1600英尺
散云层高于1600英尺
阵雨
成为
从 24日的 11点(UTC)到 24日的 13点(UTC)
风速15节,风向东转东南
散云层高于2000英尺
几率 30% :
短暂存在
从 24日的 14点(UTC)到 24日的 17点(UTC)
能見度: 9000
散云层高于1600英尺
阵雨
成为
从 24日的 23点(UTC)到 25日的 01点(UTC)
风速10节,风向
散云层高于1800英尺

TAF: TTPP 240400Z 2406/2506 09005KT 9999 FEW016 TEMP 2409/2411 9000 SHRA SCT016 BECMG 2411/2413 11015KT SCT020 PROB30 TEMPO 2414/2417 9000 SHRA SCT016 BECMG 2423/2501 09010KT SCT018

超过4000个机场的气象观测和天气预报(METAR&TAF报告)。

可查询的气象台以黄色和红色小点在地图上表示。

将鼠标移到小点上方,可查看气象台名称。

然后点击查看天气观测和预报。

如需切换地图:点击带黑十字的绿色按钮放大地图;点击带横线的绿色按钮缩小地图;或者点击绿色箭头查看邻近地区的地图。


METAR-TAF: